Time;durP1;ratioP1;P1;durP2;ratioP2;P2;SDS_P1;SDS_P2;PMS_P1;PMS_P2;Temp;Humidity;BMP_temperature;BMP_pressure;BME280_temperature;BME280_humidity;BME280_pressure;Samples;Min_cycle;Max_cycle;Signal;HPM_P1;HPM_P2
2023/09/21 00:01:20;;;;;;;2.70;1.93;;;;;;;;;;5054209;28;20322;-81
2023/09/21 00:03:49;;;;;;;4.67;2.80;;;;;;;;;;5054129;28;20252;-81
2023/09/21 00:06:19;;;;;;;4.60;3.13;;;;;;;;;;5053690;28;20199;-81
2023/09/21 00:08:48;;;;;;;4.40;2.43;;;;;;;;;;5054340;28;20203;-80
2023/09/21 00:11:18;;;;;;;4.87;3.00;;;;;;;;;;5054091;28;20222;-81
2023/09/21 00:13:46;;;;;;;2.27;1.80;;;;;;;;;;5053756;28;20206;-81
2023/09/21 00:16:18;;;;;;;4.23;2.47;;;;;;;;;;5053622;28;20198;-81
2023/09/21 00:18:47;;;;;;;6.00;3.70;;;;;;;;;;5053654;28;20225;-81
2023/09/21 00:21:16;;;;;;;3.10;2.80;;;;;;;;;;5053566;28;20198;-81
2023/09/21 00:23:47;;;;;;;6.87;2.70;;;;;;;;;;5053629;28;20202;-81
2023/09/21 00:26:17;;;;;;;2.57;2.17;;;;;;;;;;5053584;28;20203;-81
2023/09/21 00:28:46;;;;;;;5.77;2.97;;;;;;;;;;5053124;28;20190;-80
2023/09/21 00:31:14;;;;;;;3.07;2.67;;;;;;;;;;5053651;28;20194;-81
2023/09/21 00:33:43;;;;;;;5.07;2.90;;;;;;;;;;5052821;28;20198;-80
2023/09/21 00:36:13;;;;;;;6.87;3.20;;;;;;;;;;5052995;28;20222;-81
2023/09/21 00:38:42;;;;;;;2.23;1.77;;;;;;;;;;5053460;28;20199;-80
2023/09/21 00:41:12;;;;;;;3.37;2.63;;;;;;;;;;5052530;28;20272;-83
2023/09/21 00:43:41;;;;;;;4.40;2.57;;;;;;;;;;5052333;28;20256;-82
2023/09/21 00:46:09;;;;;;;5.20;2.67;;;;;;;;;;5052626;28;20210;-82
2023/09/21 00:48:42;;;;;;;5.20;2.53;;;;;;;;;;5052328;28;20238;-83
2023/09/21 00:51:13;;;;;;;6.20;3.60;;;;;;;;;;5052120;28;20198;-83
2023/09/21 00:53:44;;;;;;;3.50;2.60;;;;;;;;;;5052185;28;20233;-82
2023/09/21 00:56:17;;;;;;;2.23;2.00;;;;;;;;;;5052893;28;20472;-82
2023/09/21 00:58:47;;;;;;;5.13;3.03;;;;;;;;;;5052529;28;20293;-83
2023/09/21 01:01:16;;;;;;;6.10;3.67;;;;;;;;;;5052000;28;20202;-82
2023/09/21 01:03:46;;;;;;;3.90;2.97;;;;;;;;;;5051918;28;20229;-82
2023/09/21 01:06:16;;;;;;;5.27;3.67;;;;;;;;;;5052884;28;20205;-82
2023/09/21 01:08:45;;;;;;;5.73;2.90;;;;;;;;;;5052380;28;20284;-82
2023/09/21 01:11:16;;;;;;;1.97;1.77;;;;;;;;;;5051797;28;20202;-82
2023/09/21 01:13:47;;;;;;;5.20;3.00;;;;;;;;;;5051982;28;20219;-82
2023/09/21 01:16:18;;;;;;;3.40;2.67;;;;;;;;;;5052061;28;20206;-82
2023/09/21 01:18:52;;;;;;;4.80;2.60;;;;;;;;;;5051612;28;20195;-82
2023/09/21 01:21:27;;;;;;;3.67;2.53;;;;;;;;;;5052189;28;20260;-82
2023/09/21 01:23:57;;;;;;;3.47;2.50;;;;;;;;;;5052341;28;20228;-82
2023/09/21 01:26:26;;;;;;;2.60;1.97;;;;;;;;;;5052185;28;20224;-80
2023/09/21 01:28:56;;;;;;;4.07;2.97;;;;;;;;;;5052321;28;20202;-80
2023/09/21 01:31:25;;;;;;;5.10;3.30;;;;;;;;;;5052502;28;20198;-80
2023/09/21 01:33:54;;;;;;;4.50;2.30;;;;;;;;;;5052080;28;20214;-81
2023/09/21 01:36:23;;;;;;;4.70;2.70;;;;;;;;;;5052206;28;20265;-80
2023/09/21 01:38:52;;;;;;;5.27;2.83;;;;;;;;;;5051992;28;20213;-81
2023/09/21 01:41:23;;;;;;;2.57;1.60;;;;;;;;;;5052600;28;20198;-80
2023/09/21 01:43:51;;;;;;;4.07;2.73;;;;;;;;;;5052145;28;20211;-80
2023/09/21 01:46:22;;;;;;;2.47;1.97;;;;;;;;;;5051998;28;20205;-80
2023/09/21 01:48:51;;;;;;;5.23;2.70;;;;;;;;;;5051617;28;20235;-80
2023/09/21 01:51:21;;;;;;;1.87;1.70;;;;;;;;;;5052179;28;20227;-81
2023/09/21 01:53:49;;;;;;;4.03;2.73;;;;;;;;;;5051824;28;20215;-80
2023/09/21 01:56:18;;;;;;;3.27;2.97;;;;;;;;;;5051678;28;20202;-80
2023/09/21 01:58:49;;;;;;;1.43;1.30;;;;;;;;;;5053769;28;20198;-80
2023/09/21 02:01:18;;;;;;;4.77;2.83;;;;;;;;;;5056239;28;20198;-81
2023/09/21 02:03:47;;;;;;;4.43;2.10;;;;;;;;;;5056381;28;20197;-81
2023/09/21 02:06:15;;;;;;;5.00;2.50;;;;;;;;;;5055535;28;20197;-81
2023/09/21 02:08:44;;;;;;;2.70;2.50;;;;;;;;;;5056345;28;20209;-81
2023/09/21 02:11:14;;;;;;;2.83;2.30;;;;;;;;;;5056274;28;20210;-81
2023/09/21 02:13:43;;;;;;;2.90;2.30;;;;;;;;;;5056013;28;20286;-81
2023/09/21 02:16:15;;;;;;;4.60;3.00;;;;;;;;;;5055826;28;20198;-81
2023/09/21 02:18:45;;;;;;;4.83;4.13;;;;;;;;;;5056149;28;20229;-82
2023/09/21 02:21:17;;;;;;;3.07;2.30;;;;;;;;;;5056263;28;20221;-81
2023/09/21 02:23:46;;;;;;;13.40;5.63;;;;;;;;;;5055571;28;20308;-80
2023/09/21 02:26:15;;;;;;;2.47;1.40;;;;;;;;;;5055689;28;20264;-81
2023/09/21 02:28:44;;;;;;;0.97;0.97;;;;;;;;;;5055963;28;20202;-81
2023/09/21 02:31:14;;;;;;;1.57;1.47;;;;;;;;;;5055735;28;20206;-81
2023/09/21 02:33:43;;;;;;;3.90;1.80;;;;;;;;;;5055196;28;20226;-81
2023/09/21 02:36:19;;;;;;;1.80;1.60;;;;;;;;;;5055469;28;20198;-81
2023/09/21 02:38:49;;;;;;;1.83;1.50;;;;;;;;;;5055927;28;20202;-81
2023/09/21 02:41:18;;;;;;;1.53;1.20;;;;;;;;;;5055401;28;20229;-81
2023/09/21 02:43:46;;;;;;;3.57;2.07;;;;;;;;;;5054945;28;20194;-81
2023/09/21 02:46:16;;;;;;;4.43;2.83;;;;;;;;;;5056082;28;20225;-80
2023/09/21 02:48:46;;;;;;;2.60;2.20;;;;;;;;;;5055106;28;20283;-80
2023/09/21 02:51:15;;;;;;;5.17;2.77;;;;;;;;;;5055400;28;20244;-82
2023/09/21 02:53:46;;;;;;;2.63;2.10;;;;;;;;;;5054671;28;20210;-81
2023/09/21 02:56:19;;;;;;;5.13;3.20;;;;;;;;;;5055564;28;20205;-81
2023/09/21 02:58:49;;;;;;;7.20;3.50;;;;;;;;;;5055201;28;20280;-81
2023/09/21 03:01:22;;;;;;;6.03;4.23;;;;;;;;;;5054901;28;20195;-81
2023/09/21 03:03:51;;;;;;;4.20;3.80;;;;;;;;;;5054771;28;20195;-81
2023/09/21 03:06:22;;;;;;;5.87;3.13;;;;;;;;;;5055004;28;20198;-81
2023/09/21 03:08:51;;;;;;;3.90;3.37;;;;;;;;;;5055137;28;20198;-81
2023/09/21 03:11:19;;;;;;;6.90;4.00;;;;;;;;;;5054662;28;20241;-81
2023/09/21 03:13:48;;;;;;;3.57;2.20;;;;;;;;;;5055141;28;20221;-81
2023/09/21 03:16:18;;;;;;;6.17;3.77;;;;;;;;;;5055079;28;20295;-81
2023/09/21 03:18:48;;;;;;;5.07;3.03;;;;;;;;;;5054650;28;20236;-81
2023/09/21 03:21:17;;;;;;;4.43;3.63;;;;;;;;;;5054737;28;20293;-81
2023/09/21 03:23:46;;;;;;;3.40;2.73;;;;;;;;;;5054515;28;20225;-81
2023/09/21 03:26:18;;;;;;;4.57;3.20;;;;;;;;;;5054765;28;20234;-81
2023/09/21 03:28:47;;;;;;;6.90;3.70;;;;;;;;;;5054521;28;20210;-81
2023/09/21 03:31:16;;;;;;;5.63;3.47;;;;;;;;;;5054602;28;20199;-81
2023/09/21 03:33:46;;;;;;;4.83;3.10;;;;;;;;;;5054288;28;20264;-80
2023/09/21 03:36:16;;;;;;;3.67;2.57;;;;;;;;;;5054533;28;20227;-80
2023/09/21 03:38:47;;;;;;;3.70;3.30;;;;;;;;;;5053985;28;20206;-81
2023/09/21 03:41:16;;;;;;;3.87;3.43;;;;;;;;;;5054783;28;20201;-80
2023/09/21 03:43:46;;;;;;;4.77;3.90;;;;;;;;;;5054307;28;20194;-80
2023/09/21 03:46:14;;;;;;;3.77;3.40;;;;;;;;;;5054311;28;20224;-81
2023/09/21 03:48:43;;;;;;;5.27;3.43;;;;;;;;;;5053826;28;20237;-81
2023/09/21 03:51:12;;;;;;;4.20;3.33;;;;;;;;;;5054077;28;20219;-81
2023/09/21 03:53:42;;;;;;;3.53;3.10;;;;;;;;;;5054342;28;20215;-80
2023/09/21 03:56:11;;;;;;;4.90;4.40;;;;;;;;;;5054005;28;20228;-81
2023/09/21 03:58:39;;;;;;;4.10;3.63;;;;;;;;;;5053871;28;20372;-81
2023/09/21 04:01:09;;;;;;;2.30;1.43;;;;;;;;;;5054138;28;20208;-81
2023/09/21 04:03:37;;;;;;;4.83;2.37;;;;;;;;;;5053520;28;20215;-80
2023/09/21 04:06:07;;;;;;;6.03;3.97;;;;;;;;;;5053784;28;20206;-80
2023/09/21 04:08:35;;;;;;;4.70;3.57;;;;;;;;;;5053493;28;20253;-80
2023/09/21 04:11:06;;;;;;;3.53;3.20;;;;;;;;;;5053942;28;20232;-80
2023/09/21 04:13:34;;;;;;;4.13;2.80;;;;;;;;;;5053338;28;20216;-81
2023/09/21 04:16:06;;;;;;;3.47;2.53;;;;;;;;;;5053407;28;20198;-82
2023/09/21 04:18:35;;;;;;;3.23;2.93;;;;;;;;;;5053826;28;20229;-81
2023/09/21 04:21:08;;;;;;;3.63;2.90;;;;;;;;;;5053367;28;20241;-81
2023/09/21 04:23:47;;;;;;;2.43;2.20;;;;;;;;;;5053723;28;20202;-81
2023/09/21 04:26:17;;;;;;;4.80;3.10;;;;;;;;;;5053583;28;20199;-81
2023/09/21 04:28:49;;;;;;;4.67;2.80;;;;;;;;;;5053745;28;20186;-81
2023/09/21 04:31:19;;;;;;;2.80;2.60;;;;;;;;;;5053699;28;20210;-81
2023/09/21 04:33:47;;;;;;;5.03;2.93;;;;;;;;;;5053538;28;20228;-82
2023/09/21 04:36:16;;;;;;;3.93;2.47;;;;;;;;;;5052771;28;20229;-82
2023/09/21 04:38:44;;;;;;;3.57;2.80;;;;;;;;;;5053180;28;20213;-82
2023/09/21 04:41:15;;;;;;;2.47;2.27;;;;;;;;;;5052937;28;20198;-82
2023/09/21 04:43:45;;;;;;;5.37;3.57;;;;;;;;;;5052337;28;20206;-82
2023/09/21 04:46:14;;;;;;;3.00;2.70;;;;;;;;;;5052573;28;20190;-82
2023/09/21 04:48:42;;;;;;;3.97;3.20;;;;;;;;;;5053030;28;20284;-82
2023/09/21 04:51:16;;;;;;;3.37;3.00;;;;;;;;;;5052514;28;20198;-82
2023/09/21 04:53:45;;;;;;;3.63;2.97;;;;;;;;;;5052320;28;20196;-82
2023/09/21 04:56:14;;;;;;;3.67;2.17;;;;;;;;;;5052675;28;20202;-81
2023/09/21 04:58:42;;;;;;;3.30;2.70;;;;;;;;;;5053113;28;20228;-82
2023/09/21 05:01:12;;;;;;;4.83;3.93;;;;;;;;;;5052377;28;20199;-82
2023/09/21 05:03:41;;;;;;;4.60;2.80;;;;;;;;;;5052403;28;20224;-81
2023/09/21 05:06:10;;;;;;;3.63;2.90;;;;;;;;;;5052643;28;20202;-82
2023/09/21 05:08:38;;;;;;;6.50;3.40;;;;;;;;;;5052674;28;20198;-82
2023/09/21 05:11:07;;;;;;;0.80;0.80;;;;;;;;;;5051848;28;20206;-82
2023/09/21 05:13:36;;;;;;;4.90;1.80;;;;;;;;;;5052184;28;20206;-83
2023/09/21 05:16:05;;;;;;;1.77;1.67;;;;;;;;;;5051992;28;20226;-85
2023/09/21 05:18:35;;;;;;;0.80;0.80;;;;;;;;;;5051868;28;20301;-85
2023/09/21 05:21:04;;;;;;;3.30;0.87;;;;;;;;;;5051391;28;20195;-84
2023/09/21 05:23:33;;;;;;;0.93;0.87;;;;;;;;;;5051845;28;20194;-84
2023/09/21 05:26:02;;;;;;;1.17;1.07;;;;;;;;;;5051619;28;20245;-84
2023/09/21 05:28:31;;;;;;;0.50;0.50;;;;;;;;;;5051715;28;20198;-85
2023/09/21 05:31:00;;;;;;;0.63;0.63;;;;;;;;;;5051876;28;20301;-83
2023/09/21 05:33:30;;;;;;;0.40;0.40;;;;;;;;;;5051071;28;20206;-84
2023/09/21 05:36:04;;;;;;;0.40;0.40;;;;;;;;;;5051348;28;20214;-84
2023/09/21 05:38:33;;;;;;;0.40;0.40;;;;;;;;;;5051621;28;20289;-84
2023/09/21 05:41:04;;;;;;;0.40;0.40;;;;;;;;;;5051246;28;20209;-84
2023/09/21 05:43:32;;;;;;;0.50;0.50;;;;;;;;;;5051619;28;20202;-84
2023/09/21 05:46:01;;;;;;;0.40;0.40;;;;;;;;;;5051795;28;20202;-84
2023/09/21 05:48:31;;;;;;;0.37;0.37;;;;;;;;;;5050848;28;20240;-83
2023/09/21 05:51:01;;;;;;;0.40;0.40;;;;;;;;;;5051792;28;20218;-84
2023/09/21 05:53:31;;;;;;;3.23;1.43;;;;;;;;;;5051619;28;20208;-84
2023/09/21 05:55:59;;;;;;;0.87;0.87;;;;;;;;;;5051834;28;20218;-83
2023/09/21 05:58:29;;;;;;;0.77;0.77;;;;;;;;;;5051384;28;20206;-84
2023/09/21 06:00:59;;;;;;;2.33;0.60;;;;;;;;;;5051579;28;20203;-84
2023/09/21 06:03:28;;;;;;;1.50;1.07;;;;;;;;;;5052064;28;20208;-84
2023/09/21 06:05:57;;;;;;;0.63;0.63;;;;;;;;;;5051193;28;20211;-84
2023/09/21 06:08:29;;;;;;;0.53;0.53;;;;;;;;;;5051493;28;20248;-84
2023/09/21 06:10:58;;;;;;;0.40;0.40;;;;;;;;;;5051190;28;20200;-84
2023/09/21 06:13:26;;;;;;;0.30;0.30;;;;;;;;;;5051496;28;20201;-84
2023/09/21 06:15:55;;;;;;;0.33;0.33;;;;;;;;;;5050969;28;20213;-85
2023/09/21 06:18:25;;;;;;;0.40;0.40;;;;;;;;;;5051530;28;20268;-83
2023/09/21 06:20:55;;;;;;;0.53;0.53;;;;;;;;;;5051690;28;20244;-86
2023/09/21 06:23:24;;;;;;;0.50;0.50;;;;;;;;;;5051811;28;20222;-84
2023/09/21 06:25:58;;;;;;;0.90;0.90;;;;;;;;;;5051421;28;20225;-84
2023/09/21 06:28:27;;;;;;;0.40;0.40;;;;;;;;;;5052037;28;20193;-83
2023/09/21 06:30:55;;;;;;;0.40;0.40;;;;;;;;;;5052300;28;20208;-84
2023/09/21 06:33:27;;;;;;;0.40;0.40;;;;;;;;;;5051558;28;20207;-83
2023/09/21 06:35:56;;;;;;;0.40;0.40;;;;;;;;;;5051575;28;20225;-84
2023/09/21 06:38:24;;;;;;;0.70;0.70;;;;;;;;;;5051685;28;20208;-84
2023/09/21 06:40:52;;;;;;;0.40;0.40;;;;;;;;;;5051754;28;20205;-84
2023/09/21 06:43:26;;;;;;;0.30;0.30;;;;;;;;;;5051661;28;20300;-83
2023/09/21 06:45:54;;;;;;;0.50;0.50;;;;;;;;;;5055091;28;20196;-84
2023/09/21 06:48:23;;;;;;;0.30;0.30;;;;;;;;;;5055844;28;20333;-81
2023/09/21 06:50:52;;;;;;;0.40;0.40;;;;;;;;;;5056142;28;20244;-81
2023/09/21 06:53:24;;;;;;;0.30;0.30;;;;;;;;;;5055120;28;20263;-81
2023/09/21 06:55:54;;;;;;;0.40;0.40;;;;;;;;;;5055401;28;20252;-83
2023/09/21 06:58:24;;;;;;;0.40;0.40;;;;;;;;;;5056443;28;20229;-83
2023/09/21 07:00:53;;;;;;;0.40;0.40;;;;;;;;;;5055298;28;20206;-83
2023/09/21 07:03:22;;;;;;;0.30;0.30;;;;;;;;;;5054734;28;20202;-83
2023/09/21 07:05:51;;;;;;;0.63;0.63;;;;;;;;;;5055284;28;20213;-83
2023/09/21 07:08:23;;;;;;;0.40;0.40;;;;;;;;;;5054969;28;20206;-82
2023/09/21 07:10:52;;;;;;;0.30;0.30;;;;;;;;;;5054775;28;20228;-84
2023/09/21 07:13:20;;;;;;;0.67;0.67;;;;;;;;;;5054255;28;20197;-83
2023/09/21 07:15:52;;;;;;;0.53;0.53;;;;;;;;;;5054578;28;20229;-83
2023/09/21 07:18:21;;;;;;;0.77;0.77;;;;;;;;;;5055570;28;20255;-83
2023/09/21 07:20:49;;;;;;;1.37;0.80;;;;;;;;;;5054249;28;20444;-83
2023/09/21 07:23:18;;;;;;;0.70;0.70;;;;;;;;;;5054665;28;20202;-83
2023/09/21 07:25:46;;;;;;;0.40;0.40;;;;;;;;;;5054503;28;20210;-83
2023/09/21 07:28:15;;;;;;;3.50;0.77;;;;;;;;;;5054493;28;20201;-83
2023/09/21 07:30:44;;;;;;;0.40;0.40;;;;;;;;;;5054482;28;20209;-83
2023/09/21 07:33:14;;;;;;;0.33;0.33;;;;;;;;;;5054821;28;20226;-81
2023/09/21 07:35:43;;;;;;;0.50;0.50;;;;;;;;;;5054581;28;20225;-80
2023/09/21 07:38:12;;;;;;;0.50;0.50;;;;;;;;;;5054761;28;20316;-81
2023/09/21 07:40:40;;;;;;;0.40;0.40;;;;;;;;;;5054625;28;20224;-83
2023/09/21 07:43:10;;;;;;;0.57;0.57;;;;;;;;;;5054210;28;20200;-83
2023/09/21 07:45:39;;;;;;;2.47;1.03;;;;;;;;;;5054329;28;20194;-83
2023/09/21 07:48:07;;;;;;;1.57;1.33;;;;;;;;;;5054488;28;20237;-82
2023/09/21 07:50:37;;;;;;;1.17;0.70;;;;;;;;;;5054522;28;20205;-83
2023/09/21 07:53:07;;;;;;;2.17;1.20;;;;;;;;;;5054129;28;20209;-82
2023/09/21 07:55:36;;;;;;;1.63;1.43;;;;;;;;;;5052953;28;20239;-83
2023/09/21 07:58:04;;;;;;;2.10;1.10;;;;;;;;;;5053545;28;20209;-83
2023/09/21 08:00:33;;;;;;;1.07;0.93;;;;;;;;;;5053792;28;20205;-82
2023/09/21 08:03:02;;;;;;;1.73;0.90;;;;;;;;;;5053608;28;20238;-82
2023/09/21 08:05:32;;;;;;;1.30;1.20;;;;;;;;;;5053003;28;20251;-82
2023/09/21 08:08:02;;;;;;;1.37;1.10;;;;;;;;;;5053183;28;20224;-82
2023/09/21 08:10:32;;;;;;;0.30;0.30;;;;;;;;;;5053595;28;20212;-82
2023/09/21 08:13:01;;;;;;;0.70;0.70;;;;;;;;;;5053791;28;20209;-82
2023/09/21 08:15:30;;;;;;;0.93;0.70;;;;;;;;;;5053204;28;20197;-82
2023/09/21 08:18:00;;;;;;;0.77;0.77;;;;;;;;;;5053592;28;20211;-82
2023/09/21 08:20:29;;;;;;;0.77;0.77;;;;;;;;;;5053957;28;20197;-82
2023/09/21 08:22:58;;;;;;;0.50;0.50;;;;;;;;;;5054083;28;20240;-82
2023/09/21 08:25:28;;;;;;;1.93;1.33;;;;;;;;;;5053166;28;20208;-82
2023/09/21 08:27:57;;;;;;;0.40;0.40;;;;;;;;;;5053190;28;20212;-82
2023/09/21 08:30:26;;;;;;;0.30;0.30;;;;;;;;;;5053474;28;20201;-82
2023/09/21 08:32:54;;;;;;;0.53;0.53;;;;;;;;;;5053735;28;20208;-82
2023/09/21 08:35:24;;;;;;;2.93;1.77;;;;;;;;;;5052472;28;20209;-82
2023/09/21 08:37:52;;;;;;;3.90;1.97;;;;;;;;;;5053067;28;20237;-82
2023/09/21 08:40:22;;;;;;;1.80;1.13;;;;;;;;;;5053411;28;20259;-82
2023/09/21 08:42:53;;;;;;;0.80;0.80;;;;;;;;;;5053166;28;20270;-82
2023/09/21 08:45:22;;;;;;;7.77;1.30;;;;;;;;;;5052640;28;20231;-82
2023/09/21 08:47:51;;;;;;;3.57;2.27;;;;;;;;;;5052793;28;20244;-81
2023/09/21 08:50:21;;;;;;;1.20;1.10;;;;;;;;;;5053119;28;20207;-82
2023/09/21 08:52:53;;;;;;;5.20;1.83;;;;;;;;;;5053509;28;20215;-80
2023/09/21 08:55:22;;;;;;;6.27;2.13;;;;;;;;;;5052366;28;20299;-79
2023/09/21 08:57:54;;;;;;;2.13;1.43;;;;;;;;;;5052558;28;20264;-79
2023/09/21 09:00:25;;;;;;;0.40;0.40;;;;;;;;;;5052764;28;20242;-80
2023/09/21 09:02:54;;;;;;;2.87;1.70;;;;;;;;;;5052341;28;20205;-79
2023/09/21 09:05:23;;;;;;;3.47;1.80;;;;;;;;;;5052459;28;20215;-79
2023/09/21 09:07:52;;;;;;;6.63;2.17;;;;;;;;;;5052852;28;20201;-80
2023/09/21 09:10:20;;;;;;;4.07;1.60;;;;;;;;;;5052549;28;20247;-80
2023/09/21 09:12:49;;;;;;;7.27;2.03;;;;;;;;;;5051784;28;20206;-80
2023/09/21 09:15:34;;;;;;;14.03;2.30;;;;;;;;;;5052418;28;20202;-79
2023/09/21 09:18:03;;;;;;;1.30;1.20;;;;;;;;;;5051369;28;20230;-79
2023/09/21 09:20:32;;;;;;;3.70;1.90;;;;;;;;;;5051981;28;20202;-79
2023/09/21 09:23:02;;;;;;;0.70;0.70;;;;;;;;;;5052222;28;20202;-80
2023/09/21 09:25:30;;;;;;;3.23;1.37;;;;;;;;;;5052468;28;20198;-79
2023/09/21 09:28:02;;;;;;;5.90;1.77;;;;;;;;;;5052123;28;20202;-79
2023/09/21 09:30:32;;;;;;;1.20;1.10;;;;;;;;;;5051689;28;20213;-79
2023/09/21 09:33:02;;;;;;;4.13;2.17;;;;;;;;;;5052216;28;20198;-79
2023/09/21 09:35:32;;;;;;;2.13;1.60;;;;;;;;;;5051888;28;20244;-79
2023/09/21 09:38:00;;;;;;;3.90;2.23;;;;;;;;;;5051873;28;20264;-79
2023/09/21 09:40:30;;;;;;;2.03;1.73;;;;;;;;;;5051214;28;20197;-79
2023/09/21 09:42:59;;;;;;;4.90;2.13;;;;;;;;;;5052261;28;20198;-80
2023/09/21 09:45:30;;;;;;;4.03;2.00;;;;;;;;;;5051881;28;20240;-79
2023/09/21 09:48:02;;;;;;;4.80;2.63;;;;;;;;;;5051379;28;20292;-80
2023/09/21 09:50:33;;;;;;;5.47;2.97;;;;;;;;;;5051320;28;20297;-79
2023/09/21 09:53:05;;;;;;;5.47;3.13;;;;;;;;;;5051999;28;20219;-79
2023/09/21 09:55:36;;;;;;;9.77;2.83;;;;;;;;;;5051578;28;20202;-79
2023/09/21 09:58:06;;;;;;;3.23;2.27;;;;;;;;;;5051533;28;20221;-79
2023/09/21 10:00:35;;;;;;;1.67;1.57;;;;;;;;;;5051535;28;20241;-80
2023/09/21 10:03:07;;;;;;;4.63;1.93;;;;;;;;;;5051401;28;20197;-80
2023/09/21 10:05:37;;;;;;;3.83;1.53;;;;;;;;;;5051606;28;20236;-80
2023/09/21 10:08:10;;;;;;;4.60;1.47;;;;;;;;;;5051296;28;20195;-80
2023/09/21 10:10:42;;;;;;;1.10;1.10;;;;;;;;;;5051399;28;20266;-80
2023/09/21 10:13:11;;;;;;;1.60;1.17;;;;;;;;;;5051780;28;20205;-79
2023/09/21 10:15:43;;;;;;;4.57;1.80;;;;;;;;;;5051523;28;20209;-79
2023/09/21 10:18:14;;;;;;;1.83;1.63;;;;;;;;;;5051330;28;20233;-79
2023/09/21 10:20:44;;;;;;;1.93;1.47;;;;;;;;;;5054915;28;20221;-79
2023/09/21 10:23:18;;;;;;;2.07;1.40;;;;;;;;;;5056316;28;20205;-78
2023/09/21 10:25:49;;;;;;;1.70;1.33;;;;;;;;;;5054884;28;20189;-80
2023/09/21 10:28:37;;;;;;;2.63;1.63;;;;;;;;;;5055197;28;20185;-80
2023/09/21 10:31:11;;;;;;;2.83;2.10;;;;;;;;;;5055637;28;20228;-80
2023/09/21 10:33:50;;;;;;;6.50;2.40;;;;;;;;;;5055492;28;20488;-80
2023/09/21 10:36:19;;;;;;;3.23;2.30;;;;;;;;;;5054557;28;20248;-80
2023/09/21 10:39:24;;;;;;;0.90;0.80;;;;;;;;;;5055435;28;20217;-79
2023/09/21 10:41:54;;;;;;;4.83;1.87;;;;;;;;;;5055291;28;20195;-80
2023/09/21 10:44:42;;;;;;;2.90;1.63;;;;;;;;;;5054645;28;20200;-79
2023/09/21 10:47:10;;;;;;;2.53;1.17;;;;;;;;;;5054640;28;20205;-79
2023/09/21 10:49:41;;;;;;;1.87;1.00;;;;;;;;;;5054818;28;20327;-78
2023/09/21 10:52:09;;;;;;;1.40;1.30;;;;;;;;;;5054858;28;20202;-79
2023/09/21 10:54:38;;;;;;;1.50;1.40;;;;;;;;;;5054516;28;20207;-78
2023/09/21 10:57:08;;;;;;;1.00;0.87;;;;;;;;;;5054793;28;20226;-79
2023/09/21 10:59:36;;;;;;;0.40;0.40;;;;;;;;;;5054793;28;20210;-79
2023/09/21 11:02:05;;;;;;;0.40;0.40;;;;;;;;;;5054593;28;20196;-79
2023/09/21 11:04:33;;;;;;;1.70;0.83;;;;;;;;;;5054431;28;20272;-79
2023/09/21 11:07:03;;;;;;;0.70;0.70;;;;;;;;;;5055099;28;20201;-79
2023/09/21 11:09:32;;;;;;;1.10;1.10;;;;;;;;;;5054855;28;20209;-79
2023/09/21 11:12:00;;;;;;;0.87;0.87;;;;;;;;;;5054223;28;20392;-79
2023/09/21 11:14:31;;;;;;;3.87;1.83;;;;;;;;;;5054091;28;20214;-79
2023/09/21 11:16:59;;;;;;;1.83;1.27;;;;;;;;;;5055181;28;20221;-78
2023/09/21 11:19:28;;;;;;;0.40;0.40;;;;;;;;;;5055265;28;20205;-79
2023/09/21 11:21:57;;;;;;;1.13;0.97;;;;;;;;;;5054234;28;20469;-80
2023/09/21 11:24:28;;;;;;;0.60;0.60;;;;;;;;;;5054254;28;20206;-78
2023/09/21 11:26:58;;;;;;;1.10;1.10;;;;;;;;;;5054605;28;20212;-79
2023/09/21 11:29:27;;;;;;;1.00;1.00;;;;;;;;;;5054567;28;20201;-79
2023/09/21 11:31:56;;;;;;;2.67;1.70;;;;;;;;;;5052947;28;20210;-79
2023/09/21 11:34:25;;;;;;;0.60;0.60;;;;;;;;;;5054400;28;20210;-79
2023/09/21 11:36:54;;;;;;;0.30;0.30;;;;;;;;;;5053865;28;20229;-81
2023/09/21 11:39:29;;;;;;;0.97;0.73;;;;;;;;;;5053872;28;20218;-83
2023/09/21 11:41:59;;;;;;;0.70;0.70;;;;;;;;;;5053485;28;20263;-84
2023/09/21 11:44:28;;;;;;;0.40;0.40;;;;;;;;;;5053690;28;20237;-85
2023/09/21 11:46:58;;;;;;;0.50;0.50;;;;;;;;;;5053711;28;20261;-86
2023/09/21 11:49:37;;;;;;;0.70;0.70;;;;;;;;;;5053296;28;20264;-85
2023/09/21 11:52:05;;;;;;;2.10;1.90;;;;;;;;;;5054040;28;20198;-81
2023/09/21 11:54:35;;;;;;;2.10;1.90;;;;;;;;;;5054234;28;20245;-82
2023/09/21 11:57:07;;;;;;;2.63;1.27;;;;;;;;;;5054108;28;20205;-81
2023/09/21 11:59:39;;;;;;;0.90;0.90;;;;;;;;;;5053973;28;20291;-81
2023/09/21 12:02:09;;;;;;;0.63;0.63;;;;;;;;;;5054555;28;20210;-82
2023/09/21 12:04:39;;;;;;;0.47;0.47;;;;;;;;;;5054288;28;20192;-81
2023/09/21 12:07:08;;;;;;;1.27;1.17;;;;;;;;;;5054531;28;20275;-82
2023/09/21 12:09:40;;;;;;;1.37;1.27;;;;;;;;;;5054645;28;20199;-82
2023/09/21 12:12:12;;;;;;;0.60;0.60;;;;;;;;;;5054722;28;20198;-82
2023/09/21 12:14:42;;;;;;;1.00;0.90;;;;;;;;;;5054944;28;20206;-82
2023/09/21 12:17:19;;;;;;;3.57;2.50;;;;;;;;;;5055159;28;20257;-82
2023/09/21 12:19:47;;;;;;;1.50;1.27;;;;;;;;;;5055076;28;20218;-82
2023/09/21 12:22:15;;;;;;;1.10;0.80;;;;;;;;;;5055552;28;20199;-82
2023/09/21 12:24:44;;;;;;;1.03;0.70;;;;;;;;;;5055507;28;20205;-82
2023/09/21 12:27:14;;;;;;;0.40;0.40;;;;;;;;;;5054998;28;20207;-82
2023/09/21 12:29:43;;;;;;;5.77;1.80;;;;;;;;;;5054026;28;20210;-82
2023/09/21 12:32:13;;;;;;;1.87;1.77;;;;;;;;;;5053414;28;20202;-82
2023/09/21 12:34:42;;;;;;;2.33;1.87;;;;;;;;;;5054192;28;20281;-81
2023/09/21 12:37:11;;;;;;;2.40;2.10;;;;;;;;;;5053569;28;20223;-81
2023/09/21 12:39:40;;;;;;;5.17;2.53;;;;;;;;;;5053570;28;20218;-81
2023/09/21 12:42:09;;;;;;;2.93;1.90;;;;;;;;;;5052695;28;20217;-81
2023/09/21 12:44:38;;;;;;;3.07;1.90;;;;;;;;;;5053235;28;20206;-81
2023/09/21 12:47:10;;;;;;;1.57;1.03;;;;;;;;;;5053337;28;20206;-82
2023/09/21 12:49:39;;;;;;;0.50;0.50;;;;;;;;;;5053241;28;20230;-82
2023/09/21 12:52:07;;;;;;;1.43;1.27;;;;;;;;;;5053334;28;20210;-81
2023/09/21 12:54:35;;;;;;;1.03;1.00;;;;;;;;;;5052974;28;20206;-81
2023/09/21 12:57:04;;;;;;;0.67;0.67;;;;;;;;;;5053680;28;20288;-82
2023/09/21 12:59:34;;;;;;;1.43;1.33;;;;;;;;;;5053501;28;20226;-82
2023/09/21 13:02:04;;;;;;;1.00;1.00;;;;;;;;;;5052969;28;20197;-81
2023/09/21 13:04:33;;;;;;;0.40;0.40;;;;;;;;;;5052211;28;20215;-81
2023/09/21 13:07:02;;;;;;;2.50;0.63;;;;;;;;;;5052971;28;20220;-82
2023/09/21 13:09:31;;;;;;;12.53;1.13;;;;;;;;;;5052236;28;20217;-82
2023/09/21 13:12:18;;;;;;;1.83;1.73;;;;;;;;;;5052379;28;20254;-82
2023/09/21 13:14:49;;;;;;;2.60;1.37;;;;;;;;;;5052525;28;20202;-82
2023/09/21 13:17:21;;;;;;;1.07;0.97;;;;;;;;;;5052661;28;20276;-82
2023/09/21 13:19:50;;;;;;;1.67;0.50;;;;;;;;;;5052256;28;20493;-82
2023/09/21 13:22:18;;;;;;;0.33;0.33;;;;;;;;;;5051816;28;20206;-82
2023/09/21 13:24:47;;;;;;;0.60;0.60;;;;;;;;;;5052813;28;20202;-82
2023/09/21 13:27:15;;;;;;;0.43;0.43;;;;;;;;;;5052589;28;20198;-82
2023/09/21 13:29:44;;;;;;;0.57;0.57;;;;;;;;;;5052715;28;20227;-82
2023/09/21 13:32:12;;;;;;;7.57;0.90;;;;;;;;;;5052337;28;20273;-83
2023/09/21 13:34:47;;;;;;;7.07;1.67;;;;;;;;;;5053851;28;20202;-83
2023/09/21 13:37:16;;;;;;;0.70;0.70;;;;;;;;;;5059863;28;20235;-83
2023/09/21 13:39:44;;;;;;;0.70;0.70;;;;;;;;;;5068055;28;20223;-83
2023/09/21 13:42:13;;;;;;;0.93;0.70;;;;;;;;;;5072787;28;20198;-83
2023/09/21 13:44:44;;;;;;;0.93;0.93;;;;;;;;;;5072250;28;20259;-82
2023/09/21 13:47:13;;;;;;;0.60;0.60;;;;;;;;;;5073615;28;20224;-83
2023/09/21 13:49:41;;;;;;;0.50;0.50;;;;;;;;;;5071986;28;20221;-83
2023/09/21 13:52:15;;;;;;;0.60;0.60;;;;;;;;;;5072655;28;20262;-82
2023/09/21 13:54:44;;;;;;;1.70;1.07;;;;;;;;;;5071647;28;20205;-83
2023/09/21 13:57:13;;;;;;;0.63;0.63;;;;;;;;;;5072418;28;20256;-83
2023/09/21 13:59:41;;;;;;;1.10;1.03;;;;;;;;;;5072303;28;20217;-83
2023/09/21 14:02:12;;;;;;;0.60;0.60;;;;;;;;;;5072160;28;20201;-83
2023/09/21 14:04:40;;;;;;;0.90;0.90;;;;;;;;;;5071532;28;20206;-83
2023/09/21 14:07:11;;;;;;;0.90;0.80;;;;;;;;;;5072296;28;20224;-83
2023/09/21 14:09:41;;;;;;;1.33;0.97;;;;;;;;;;5071943;28;20190;-82
2023/09/21 14:12:09;;;;;;;0.63;0.63;;;;;;;;;;5072459;28;20277;-83
2023/09/21 14:14:38;;;;;;;0.97;0.90;;;;;;;;;;5071771;28;20197;-83
2023/09/21 14:17:06;;;;;;;0.60;0.60;;;;;;;;;;5072576;28;20202;-82
2023/09/21 14:19:35;;;;;;;5.97;1.50;;;;;;;;;;5071280;28;20225;-82
2023/09/21 14:22:04;;;;;;;0.80;0.80;;;;;;;;;;5071852;28;20232;-82
2023/09/21 14:24:33;;;;;;;0.33;0.33;;;;;;;;;;5072064;28;20270;-82
2023/09/21 14:27:02;;;;;;;1.60;0.97;;;;;;;;;;5071076;28;20224;-82
2023/09/21 14:29:31;;;;;;;1.60;1.07;;;;;;;;;;5071587;28;20248;-82
2023/09/21 14:32:00;;;;;;;1.20;1.20;;;;;;;;;;5071634;28;20210;-81
2023/09/21 14:34:33;;;;;;;2.17;0.90;;;;;;;;;;5071636;28;20194;-82
2023/09/21 14:37:05;;;;;;;1.53;1.40;;;;;;;;;;5070873;28;20321;-82
2023/09/21 14:39:35;;;;;;;2.50;1.53;;;;;;;;;;5071537;28;20218;-82
2023/09/21 14:42:04;;;;;;;0.70;0.70;;;;;;;;;;5072097;28;20213;-82
2023/09/21 14:44:32;;;;;;;3.37;0.67;;;;;;;;;;5071513;28;20198;-82
2023/09/21 14:47:00;;;;;;;0.30;0.30;;;;;;;;;;5071152;28;20208;-82
2023/09/21 14:49:29;;;;;;;0.50;0.50;;;;;;;;;;5071530;28;20258;-82
2023/09/21 14:52:00;;;;;;;0.40;0.40;;;;;;;;;;5071522;28;20251;-82
2023/09/21 14:54:28;;;;;;;0.40;0.40;;;;;;;;;;5071158;28;20213;-82
2023/09/21 14:56:59;;;;;;;0.90;0.90;;;;;;;;;;5071247;28;20205;-82
2023/09/21 14:59:27;;;;;;;0.70;0.70;;;;;;;;;;5071260;28;20255;-82